Latest Coastal Weather Observations for Montague Island

IDN60701

Issued at 4:11 am EST Tuesday 4 August 2020 (issued every 10 minutes, with the page automatically refreshed every 10 minutes)

About coastal observations | Map of coastal stations | Coastal observations for NSW | Marine services | Other Formats
Station Details ID: 069017 Name: MONTAGUE ISLAND LIGHTHOUSE Lat: -36.25 Lon: 150.23 Height: 52.0 m
Data from the previous 72 hours. | See also: Recent months at Montague Island
Date/Time
EST
Wind Sea
Height
m
Swell Vis
km
Cloud Weather Temp
°C
Press
hPa
Rain since
9am
mm
Dir  Spd
kts
Gust
kts
Height
m
Period
s
Dir
04/04:00am NW 6 8 - - - - - - - 14.3 1008.4 0.0
04/03:30am NNW 13 16 - - - - - - - 15.4 1008.7 0.0
04/03:00am N 12 17 - - - - - - - 15.6 1008.8 0.0
04/02:30am N 12 15 - - - - - - - 15.5 1009.2 0.0
04/02:00am NNW 10 13 - - - - - - - 15.1 1009.6 0.0
04/01:30am N 12 14 - - - - - - - 15.4 1009.9 0.0
04/01:00am NNW 9 11 - - - - - - - 14.6 1010.4 0.0
04/12:30am NNW 12 14 - - - - - - - 14.7 1010.7 0.0
04/12:00am NNW 10 14 - - - - - - - 14.9 1010.9 0.0
 
Date/Time
EST
Wind Sea
Height
m
Swell Vis
km
Cloud Weather Temp
°C
Press
hPa
Rain since
9am
mm
Dir  Spd
kts
Gust
kts
Height
m
Period
s
Dir
03/11:30pm NW 13 15 - - - - - - - 15.3 1011.2 0.0
03/11:00pm NNW 11 14 - - - - - - - 15.0 1011.5 0.0
03/10:30pm NNW 9 12 - - - - - - - 14.5 1011.7 0.0
03/10:00pm WNW 8 9 - - - - - - - 15.2 1012.1 0.0
03/09:30pm W 10 11 - - - - - - - 15.6 1012.3 0.0
03/09:00pm WNW 12 14 - - - - - - - 14.7 1012.4 0.0
03/08:30pm WNW 5 7 - - - - - - - 13.6 1012.4 0.0
03/08:00pm WNW 6 7 - - - - - - - 14.0 1012.4 0.0
03/07:30pm NW 5 6 - - - - - - - 14.2 1012.2 0.0
03/07:00pm W 5 7 - - - - - - - 14.1 1012.3 0.0
03/06:30pm WSW 6 7 - - - - - - - 14.1 1012.5 0.0
03/06:00pm SW 6 7 - - - - - - - 13.8 1012.5 0.0
03/05:30pm SW 5 6 - - - - - - - 13.8 1012.3 0.0
03/05:00pm SW 4 6 - - - - - - - 14.0 1012.4 0.0
03/04:30pm SW 3 4 - - - - - - - 14.3 1012.5 0.0
03/04:00pm WSW 2 3 - - - - - - - 14.7 1012.5 0.0
03/03:30pm CALM 0 2 - - - - - - - 15.0 1012.6 0.0
03/03:00pm CALM 0 3 - - - - - - - 15.2 1012.8 0.0
03/02:30pm N 1 3 - - - - - - - 15.1 1013.0 0.0
03/02:00pm N 1 2 - - - - - - - 15.0 1013.1 0.0
03/01:30pm WNW 4 5 - - - - - - - 15.0 1013.4 0.0
03/01:00pm NNW 4 7 - - - - - - - 14.9 1013.8 0.0
03/12:30pm N 6 9 - - - - - - - 14.5 1014.1 0.0
03/12:00pm N 8 10 - - - - - - - 14.1 1014.6 0.0
03/11:30am N 9 12 - - - - - - - 13.7 1015.1 0.0
03/11:00am N 11 13 - - - - - - - 13.7 1015.6 0.0
03/10:30am N 9 12 - - - - - - - 13.4 1016.0 0.0
03/10:00am N 10 13 - - - - - - - 13.0 1016.4 0.0
03/09:30am NNW 10 12 - - - - - - - 13.0 1016.7 0.0
03/09:00am N 12 14 - - - - - - - 12.2 1016.8 0.0
03/08:30am N 12 15 - - - - - - - 11.5 1017.0 0.0
03/08:00am NNW 10 12 - - - - - - - 11.3 1017.3 0.0
03/07:30am NNW 8 10 - - - - - - - 10.6 1017.4 0.0
03/07:00am NW 9 11 - - - - - - - 10.5 1017.5 0.0
03/06:30am NNW 10 12 - - - - - - - 11.0 1017.3 0.0
03/06:00am NW 10 13 - - - - - - - 10.6 1017.1 0.0
03/05:30am NNW 12 14 - - - - - - - 10.6 1017.2 0.0
03/05:00am NNW 11 13 - - - - - - - 10.5 1017.1 0.0
03/04:30am NNW 8 9 - - - - - - - 10.1 1017.3 0.0
03/04:00am NW 8 10 - - - - - - - 10.3 1017.6 0.0
03/03:30am NNW 9 11 - - - - - - - 10.9 1017.9 0.0
03/03:00am NNW 9 11 - - - - - - - 10.8 1018.3 0.0
03/02:30am NNW 7 8 - - - - - - - 10.9 1018.6 0.0
03/02:00am NNW 5 6 - - - - - - - 11.3 1019.1 0.0
03/01:30am NNW 4 4 - - - - - - - 11.4 1019.6 0.0
03/01:00am NW 3 4 - - - - - - - 11.6 1020.0 0.0
03/12:30am NW 4 4 - - - - - - - 11.7 1020.4 0.0
03/12:00am NNW 4 5 - - - - - - - 11.9 1020.6 0.0
 
Date/Time
EST
Wind Sea
Height
m
Swell Vis
km
Cloud Weather Temp
°C
Press
hPa
Rain since
9am
mm
Dir  Spd
kts
Gust
kts
Height
m
Period
s
Dir
02/11:30pm NW 5 6 - - - - - - - 12.0 1021.0 0.0
02/11:00pm NW 5 7 - - - - - - - 12.2 1021.3 0.0
02/10:30pm NNW 5 6 - - - - - - - 12.8 1021.3 0.0
02/10:00pm NNW 4 5 - - - - - - - 12.8 1021.5 0.0
02/09:30pm NW 6 7 - - - - - - - 12.9 1021.8 0.0
02/09:00pm NW 6 7 - - - - - - - 12.9 1022.0 0.0
02/08:30pm WNW 6 7 - - - - - - - 12.9 1022.2 0.0
02/08:00pm NW 6 7 - - - - - - - 13.1 1022.2 0.0
02/07:30pm NW 5 6 - - - - - - - 13.3 1022.1 0.0
02/07:00pm NNW 7 8 - - - - - - - 14.3 1022.1 0.0
02/06:30pm N 8 9 - - - - - - - 14.1 1022.0 0.0
02/06:00pm N 8 9 - - - - - - - 14.2 1021.9 0.0
02/05:30pm N 8 9 - - - - - - - 14.4 1022.0 0.0
02/05:00pm NNE 6 8 - - - - - - - 14.5 1022.0 0.0
02/04:30pm NNE 6 8 - - - - - - - 14.8 1022.0 0.0
02/04:00pm NNE 7 8 - - - - - - - 15.0 1022.1 0.0
02/03:30pm NE 6 7 - - - - - - - 15.5 1022.1 0.0
02/03:00pm NE 6 8 - - - - - - - 15.8 1022.0 0.0
02/02:30pm ENE 5 6 - - - - - - - 15.9 1022.2 0.0
02/02:00pm ENE 5 7 - - - - - - - 15.8 1022.2 0.0
02/01:30pm ENE 4 5 - - - - - - - 16.1 1022.3 0.0
02/01:00pm NNE 4 6 - - - - - - - 15.9 1022.8 0.0
02/12:30pm NW 3 5 - - - - - - - 16.6 1023.3 0.0
02/12:00pm CALM 0 1 - - - - - - - 16.1 1023.7 0.0
02/11:30am NNE 1 3 - - - - - - - 15.8 1024.1 0.0
02/11:00am SSE 1 3 - - - - - - - 16.0 1024.3 0.0
02/10:30am CALM 0 1 - - - - - - - 15.5 1024.6 0.0
02/10:00am CALM 0 1 - - - - - - - 14.7 1024.7 0.0
02/09:30am CALM 0 2 - - - - - - - 14.5 1024.7 0.0
02/09:00am W 2 3 - - - - - - - 13.5 1024.6 0.0
02/08:30am WNW 3 4 - - - - - - - 12.5 1024.6 0.0
02/08:00am WNW 3 3 - - - - - - - 12.0 1024.4 0.0
02/07:30am W 3 4 - - - - - - - 11.4 1024.2 0.0
02/07:00am WNW 5 5 - - - - - - - 11.1 1023.9 0.0
02/06:30am WNW 4 5 - - - - - - - 10.6 1023.8 0.0
02/06:00am W 4 5 - - - - - - - 10.6 1023.2 0.0
02/05:30am WNW 3 5 - - - - - - - 10.6 1023.0 0.0
02/05:00am W 3 4 - - - - - - - 10.9 1022.8 0.0
02/04:30am WSW 3 3 - - - - - - - 11.1 1022.6 0.0
02/04:00am WSW 4 5 - - - - - - - 11.0 1022.5 0.0
02/03:30am W 4 5 - - - - - - - 11.2 1022.5 0.0
02/03:00am W 2 3 - - - - - - - 11.4 1022.5 0.0
02/02:30am W 3 3 - - - - - - - 11.5 1022.8 0.0
02/02:00am WSW 2 2 - - - - - - - 11.7 1022.9 0.0
02/01:30am WSW 2 2 - - - - - - - 11.7 1023.1 0.0
02/01:00am SW 4 5 - - - - - - - 11.2 1023.1 0.0
02/12:30am SW 3 4 - - - - - - - 11.6 1023.1 0.0
02/12:00am SW 2 3 - - - - - - - 11.8 1023.0 0.0
 
Date/Time
EST
Wind Sea
Height
m
Swell Vis
km
Cloud Weather Temp
°C
Press
hPa
Rain since
9am
mm
Dir  Spd
kts
Gust
kts
Height
m
Period
s
Dir
01/11:30pm WSW 2 3 - - - - - - - 11.8 1023.1 0.0
01/11:00pm W 4 5 - - - - - - - 11.7 1023.1 0.0
01/10:30pm W 3 4 - - - - - - - 11.8 1023.1 0.0
01/10:00pm WNW 3 4 - - - - - - - 12.2 1023.2 0.0
01/09:30pm NW 4 5 - - - - - - - 12.4 1023.1 0.0
01/09:00pm NW 4 5 - - - - - - - 12.4 1023.2 0.0
01/08:30pm WNW 4 5 - - - - - - - 12.6 1023.2 0.0
01/08:00pm WNW 4 5 - - - - - - - 12.3 1023.3 0.0
01/07:30pm W 4 6 - - - - - - - 12.5 1023.3 0.0
01/07:00pm W 2 3 - - - - - - - 12.7 1023.2 0.0
01/06:30pm CALM 0 0 - - - - - - - 13.3 1023.0 0.0
01/06:00pm CALM 0 0 - - - - - - - 12.9 1022.6 0.0
01/05:30pm CALM 0 0 - - - - - - - 13.2 1022.6 0.0
01/05:00pm CALM 0 0 - - - - - - - 13.4 1022.4 0.0
01/04:30pm SE 2 3 - - - - - - - 13.8 1022.4 0.0
01/04:00pm SE 1 4 - - - - - - - 13.8 1022.3 0.0
01/03:30pm SE 3 5 - - - - - - - 13.8 1022.3 0.0
01/03:00pm SE 3 5 - - - - - - - 14.1 1022.4 0.0
01/02:30pm SE 3 5 - - - - - - - 14.3 1022.4 0.0
01/02:00pm ESE 2 3 - - - - - - - 14.5 1022.5 0.0
01/01:30pm E 2 5 - - - - - - - 14.5 1022.7 0.0
01/01:00pm E 3 5 - - - - - - - 14.1 1022.9 0.0
01/12:30pm SE 3 5 - - - - - - - 13.7 1023.5 0.0
01/12:00pm SSW 4 6 - - - - - - - 14.2 1024.0 0.0
01/11:30am SSW 4 6 - - - - - - - 13.9 1024.4 0.0
01/11:00am SSE 3 6 - - - - - - - 13.4 1024.8 0.0
01/10:30am S 5 8 - - - - - - - 13.7 1024.8 0.0
01/10:00am SSE 4 6 - - - - - - - 13.2 1024.8 0.0
01/09:30am CALM 0 2 - - - - - - - 13.3 1024.8 0.0
01/09:00am WSW 1 3 - - - - - - - 12.7 1024.8 0.0
01/08:30am WNW 2 3 - - - - - - - 12.4 1024.6 0.0
01/08:00am WNW 4 5 - - - - - - - 11.7 1024.6 0.0
01/07:30am NW 4 5 - - - - - - - 11.1 1024.4 0.0
01/07:00am NW 6 7 - - - - - - - 10.5 1024.3 0.0
01/06:30am NW 5 7 - - - - - - - 10.4 1024.2 0.0
01/06:00am WNW 5 7 - - - - - - - 10.6 1024.2 0.0
01/05:30am NW 6 8 - - - - - - - 10.7 1024.1 0.0
01/05:00am NNW 8 10 - - - - - - - 11.1 1024.0 0.0
01/04:30am NNW 8 10 - - - - - - - 10.9 1024.0 0.0

Other formats

Comma delimited format used in spreadsheet applications
http://www.bom.gov.au/fwo/IDN60701/IDN60701.94939.axf

JavaScript Object Notation format (JSON) in row-major order
http://www.bom.gov.au/fwo/IDN60701/IDN60701.94939.json

Data quality

Most of these data are generated automatically and are frequently updated. Quality checks on data are not normally performed. It is possible for incorrect values to appear. Refer to information at About Latest Weather Observations and please check the disclaimer before using these data.